createdAt,value
2019-02-18T00:00:56.927Z,21.80
2019-02-18T00:01:56.922Z,22.30
2019-02-18T00:02:56.933Z,22.10
2019-02-18T00:03:56.897Z,22.00
2019-02-18T00:04:56.897Z,22.10
2019-02-18T00:05:56.906Z,22.20
2019-02-18T00:06:56.867Z,22.60
2019-02-18T00:07:56.857Z,21.50
2019-02-18T00:08:56.852Z,21.90
2019-02-18T00:09:56.841Z,21.40
2019-02-18T00:10:56.825Z,21.10
2019-02-18T00:11:56.823Z,21.70
2019-02-18T00:12:56.803Z,22.00
2019-02-18T00:13:56.803Z,21.80
2019-02-18T00:14:56.783Z,21.50
2019-02-18T00:15:56.781Z,20.70
2019-02-18T00:16:56.765Z,20.50
2019-02-18T00:17:56.771Z,21.50
2019-02-18T00:18:56.775Z,20.90
2019-02-18T00:19:56.726Z,21.50
2019-02-18T00:20:56.723Z,21.80
2019-02-18T00:21:56.711Z,21.10
2019-02-18T00:22:56.708Z,21.30
2019-02-18T00:23:56.686Z,21.30
2019-02-18T00:24:56.673Z,21.30
2019-02-18T00:25:56.662Z,21.60
2019-02-18T00:26:56.653Z,21.90
2019-02-18T00:27:56.638Z,21.60
2019-02-18T00:28:56.643Z,21.50
2019-02-18T00:29:56.621Z,21.30
2019-02-18T00:30:56.619Z,21.80
2019-02-18T00:31:56.619Z,22.00
2019-02-18T00:32:56.596Z,21.70
2019-02-18T00:33:56.577Z,22.20
2019-02-18T00:34:56.573Z,21.40
2019-02-18T00:35:56.565Z,22.10
2019-02-18T00:36:56.547Z,21.50
2019-02-18T00:37:56.538Z,21.10
2019-02-18T00:38:56.532Z,21.30
2019-02-18T00:39:56.519Z,21.30
2019-02-18T00:40:56.513Z,21.40
2019-02-18T00:41:56.517Z,21.90
2019-02-18T00:42:56.479Z,22.10
2019-02-18T00:43:56.471Z,22.00
2019-02-18T00:44:56.463Z,21.30
2019-02-18T00:45:56.449Z,21.20
2019-02-18T00:46:56.447Z,21.80
2019-02-18T00:47:56.425Z,21.40
2019-02-18T00:48:56.417Z,21.80
2019-02-18T00:49:56.412Z,21.60
2019-02-18T00:50:56.398Z,22.40
2019-02-18T00:51:56.394Z,21.60
2019-02-18T00:52:56.378Z,21.70
2019-02-18T00:53:56.363Z,21.30
2019-02-18T00:54:56.375Z,21.40
2019-02-18T00:55:56.343Z,22.60
2019-02-18T00:56:56.348Z,22.20
2019-02-18T00:57:56.329Z,22.40
2019-02-18T00:58:56.317Z,22.00
2019-02-18T00:59:56.297Z,21.20
2019-02-18T01:00:56.294Z,21.10
2019-02-18T01:01:56.285Z,21.70
2019-02-18T01:02:56.280Z,21.70
2019-02-18T01:03:56.260Z,21.70
2019-02-18T01:04:56.263Z,22.50
2019-02-18T01:05:56.236Z,22.80
2019-02-18T01:06:56.229Z,22.70
2019-02-18T01:07:56.216Z,22.30
2019-02-18T01:08:56.209Z,21.90
2019-02-18T01:09:56.193Z,23.00
2019-02-18T01:10:56.190Z,22.30
2019-02-18T01:11:56.174Z,21.30
2019-02-18T01:12:56.161Z,21.80
2019-02-18T01:13:56.157Z,21.50
2019-02-18T01:14:56.146Z,21.80
2019-02-18T01:15:56.126Z,22.80
2019-02-18T01:16:56.127Z,21.20
2019-02-18T01:17:56.118Z,22.10
2019-02-18T01:18:56.100Z,21.90
2019-02-18T01:19:56.085Z,21.80
2019-02-18T01:20:56.080Z,22.10
2019-02-18T01:21:56.062Z,21.90
2019-02-18T01:22:56.052Z,21.70
2019-02-18T01:23:56.049Z,21.70
2019-02-18T01:24:56.037Z,21.40
2019-02-18T01:25:56.025Z,21.90
2019-02-18T01:26:56.075Z,21.30
2019-02-18T01:27:56.000Z,23.10
2019-02-18T01:28:55.991Z,20.80
2019-02-18T01:29:55.975Z,21.00
2019-02-18T01:30:55.974Z,21.40
2019-02-18T01:31:55.965Z,21.80
2019-02-18T01:32:55.947Z,20.70
2019-02-18T01:33:55.944Z,20.90
2019-02-18T01:34:55.920Z,20.30
2019-02-18T01:35:55.911Z,19.90
2019-02-18T01:36:55.903Z,20.60
2019-02-18T01:37:55.888Z,21.00
2019-02-18T01:38:55.877Z,21.10
2019-02-18T01:39:55.867Z,20.40
2019-02-18T01:40:55.877Z,21.50
2019-02-18T01:41:55.861Z,22.20
2019-02-18T01:42:55.847Z,21.80
2019-02-18T01:43:55.828Z,21.20
2019-02-18T01:44:55.815Z,22.00
2019-02-18T01:45:55.803Z,22.30
2019-02-18T01:46:55.789Z,22.80
2019-02-18T01:47:55.786Z,22.40
2019-02-18T01:48:55.781Z,22.80
2019-02-18T01:49:55.766Z,23.30
2019-02-18T01:50:55.753Z,22.20
2019-02-18T01:51:55.743Z,22.90
2019-02-18T01:52:55.730Z,23.10
2019-02-18T01:53:55.735Z,22.70
2019-02-18T01:54:55.715Z,23.80
2019-02-18T01:55:55.701Z,23.00
2019-02-18T01:56:55.687Z,22.80
2019-02-18T01:57:55.677Z,23.60
2019-02-18T01:58:55.676Z,21.90
2019-02-18T01:59:55.663Z,23.40
2019-02-18T02:00:55.653Z,23.20
2019-02-18T02:01:55.642Z,23.40
2019-02-18T02:02:55.625Z,23.00
2019-02-18T02:03:55.637Z,23.70
2019-02-18T02:04:55.611Z,23.00
2019-02-18T02:05:55.615Z,23.10
2019-02-18T02:06:55.584Z,23.10
2019-02-18T02:07:56.702Z,22.90
2019-02-18T02:08:55.563Z,23.40
2019-02-18T02:09:55.551Z,22.30
2019-02-18T02:10:55.552Z,22.40
2019-02-18T02:11:55.528Z,23.40
2019-02-18T02:12:55.519Z,23.50
2019-02-18T02:13:55.508Z,24.30
2019-02-18T02:14:55.497Z,22.90
2019-02-18T02:15:55.489Z,23.30
2019-02-18T02:16:55.491Z,23.30
2019-02-18T02:17:55.467Z,22.60
2019-02-18T02:18:55.470Z,23.20
2019-02-18T02:19:55.446Z,23.10
2019-02-18T02:20:55.433Z,22.90
2019-02-18T02:21:55.421Z,23.40
2019-02-18T02:22:55.427Z,22.50
2019-02-18T02:23:55.406Z,23.20
2019-02-18T02:24:55.391Z,22.60
2019-02-18T02:25:55.381Z,24.70
2019-02-18T02:26:55.399Z,23.40
2019-02-18T02:27:55.369Z,22.80
2019-02-18T02:28:55.363Z,23.40
2019-02-18T02:29:55.350Z,23.00
2019-02-18T02:30:55.341Z,23.40
2019-02-18T02:31:55.316Z,24.00
2019-02-18T02:32:55.310Z,24.60
2019-02-18T02:33:55.304Z,23.90
2019-02-18T02:34:55.306Z,23.40
2019-02-18T02:35:55.281Z,23.40
2019-02-18T02:36:55.281Z,23.70
2019-02-18T02:37:55.252Z,23.50
2019-02-18T02:38:55.247Z,23.00
2019-02-18T02:39:55.255Z,24.20
2019-02-18T02:40:55.224Z,23.70
2019-02-18T02:41:55.219Z,24.50
2019-02-18T02:42:55.206Z,23.50
2019-02-18T02:43:55.194Z,23.60
2019-02-18T02:44:55.183Z,24.30
2019-02-18T02:45:55.174Z,24.10
2019-02-18T02:46:55.161Z,23.80
2019-02-18T02:47:55.151Z,23.60
2019-02-18T02:48:55.141Z,23.40
2019-02-18T02:49:55.129Z,24.80
2019-02-18T02:50:55.128Z,23.40
2019-02-18T02:51:55.112Z,23.80
2019-02-18T02:52:55.105Z,23.60
2019-02-18T02:53:55.091Z,23.70
2019-02-18T02:54:55.075Z,24.20
2019-02-18T02:55:55.071Z,24.70
2019-02-18T02:56:55.065Z,23.60
2019-02-18T02:57:55.039Z,22.60
2019-02-18T02:58:55.036Z,24.70
2019-02-18T02:59:55.021Z,24.30
2019-02-18T03:00:55.013Z,24.80
2019-02-18T03:01:55.006Z,24.20
2019-02-18T03:02:55.015Z,23.80
2019-02-18T03:03:54.981Z,25.00
2019-02-18T03:04:54.974Z,23.90
2019-02-18T03:05:54.958Z,24.40
2019-02-18T03:06:54.959Z,24.50
2019-02-18T03:07:54.945Z,24.50
2019-02-18T03:08:54.937Z,23.70
2019-02-18T03:09:54.918Z,24.70
2019-02-18T03:10:54.912Z,24.70
2019-02-18T03:11:54.889Z,24.10
2019-02-18T03:12:54.889Z,24.10
2019-02-18T03:13:54.875Z,24.50
2019-02-18T03:14:54.863Z,24.00
2019-02-18T03:15:54.857Z,23.80
2019-02-18T03:16:54.841Z,24.50
2019-02-18T03:17:54.833Z,25.40
2019-02-18T03:18:54.823Z,24.60
2019-02-18T03:19:54.811Z,24.50
2019-02-18T03:20:54.799Z,24.30
2019-02-18T03:21:54.789Z,23.90
2019-02-18T03:22:54.785Z,24.40
2019-02-18T03:23:54.787Z,23.00
2019-02-18T03:24:54.760Z,23.80
2019-02-18T03:25:54.767Z,24.70
2019-02-18T03:26:54.736Z,24.20
2019-02-18T03:27:54.727Z,23.90
2019-02-18T03:28:54.717Z,24.50
2019-02-18T03:29:54.703Z,24.50
2019-02-18T03:30:54.692Z,24.10
2019-02-18T03:31:54.676Z,23.30
2019-02-18T03:32:54.670Z,25.00
2019-02-18T03:33:54.669Z,24.90
2019-02-18T03:34:54.655Z,24.20
2019-02-18T03:35:54.636Z,23.40
2019-02-18T03:36:54.629Z,24.10
2019-02-18T03:37:54.615Z,23.60
2019-02-18T03:38:54.619Z,23.60
2019-02-18T03:39:54.596Z,24.30
2019-02-18T03:41:02.835Z,24.60
2019-02-18T03:41:55.571Z,25.30
2019-02-18T03:42:54.578Z,25.30
2019-02-18T03:43:54.553Z,25.80
2019-02-18T03:44:54.539Z,25.30
2019-02-18T03:45:54.529Z,26.00
2019-02-18T03:46:54.529Z,25.50
2019-02-18T03:47:54.503Z,25.40
2019-02-18T03:48:54.503Z,26.20
2019-02-18T03:49:54.486Z,24.90
2019-02-18T03:50:54.479Z,25.50
2019-02-18T03:51:54.492Z,26.00
2019-02-18T03:52:54.452Z,24.80
2019-02-18T03:53:54.445Z,25.10
2019-02-18T03:54:54.432Z,25.80
2019-02-18T03:55:54.421Z,25.70
2019-02-18T03:56:54.412Z,25.60
2019-02-18T03:57:54.403Z,25.40
2019-02-18T03:58:54.389Z,24.40
2019-02-18T03:59:54.388Z,26.30
2019-02-18T04:00:54.375Z,26.20
2019-02-18T04:01:54.376Z,25.80
2019-02-18T04:02:54.346Z,26.10
2019-02-18T04:03:54.332Z,25.70
2019-02-18T04:04:54.339Z,25.60
2019-02-18T04:05:54.311Z,26.50
2019-02-18T04:06:54.306Z,25.60
2019-02-18T04:07:54.289Z,26.10
2019-02-18T04:08:54.275Z,24.70
2019-02-18T04:09:54.273Z,25.10
2019-02-18T04:10:54.263Z,25.30
2019-02-18T04:11:54.249Z,24.90
2019-02-18T04:12:54.233Z,26.20
2019-02-18T04:13:54.236Z,24.80
2019-02-18T04:14:54.245Z,25.70
2019-02-18T04:15:54.209Z,26.70
2019-02-18T04:16:54.202Z,25.50
2019-02-18T04:17:54.186Z,25.10
2019-02-18T04:18:54.177Z,24.40
2019-02-18T04:19:54.159Z,25.30
2019-02-18T04:20:54.151Z,24.80
2019-02-18T04:21:54.151Z,24.50
2019-02-18T04:22:54.130Z,24.40
2019-02-18T04:23:54.122Z,25.10
2019-02-18T04:24:54.127Z,25.00
2019-02-18T04:25:54.103Z,27.40
2019-02-18T04:26:54.087Z,26.20
2019-02-18T04:27:54.076Z,25.80
2019-02-18T04:28:54.065Z,25.40
2019-02-18T04:29:54.055Z,25.50
2019-02-18T04:30:54.048Z,25.10
2019-02-18T04:31:54.039Z,25.40
2019-02-18T04:32:54.019Z,28.50
2019-02-18T04:33:54.015Z,27.80
2019-02-18T04:34:54.009Z,27.30
2019-02-18T04:35:53.999Z,25.50
2019-02-18T04:36:53.986Z,25.90
2019-02-18T04:37:53.977Z,27.40
2019-02-18T04:38:54.554Z,26.90
2019-02-18T04:39:53.957Z,27.10
2019-02-18T04:40:53.942Z,25.60
2019-02-18T04:41:53.927Z,25.70
2019-02-18T04:42:53.932Z,25.50
2019-02-18T04:43:53.909Z,26.70
2019-02-18T04:44:53.903Z,25.90
2019-02-18T04:45:53.887Z,26.40
2019-02-18T04:46:53.879Z,26.30
2019-02-18T04:47:53.879Z,25.30
2019-02-18T04:48:53.855Z,25.70
2019-02-18T04:49:53.847Z,26.00
2019-02-18T04:50:53.854Z,26.00
2019-02-18T04:51:53.824Z,25.40
2019-02-18T04:52:53.811Z,25.50
2019-02-18T04:53:53.803Z,25.00
2019-02-18T04:54:53.811Z,25.10
2019-02-18T04:55:53.787Z,26.60
2019-02-18T04:56:53.778Z,26.40
2019-02-18T04:57:53.760Z,27.30
2019-02-18T04:58:53.755Z,26.70
2019-02-18T04:59:53.734Z,25.40
2019-02-18T05:00:53.729Z,25.80
2019-02-18T05:01:53.718Z,24.70
2019-02-18T05:02:53.709Z,27.00
2019-02-18T05:03:53.695Z,27.40
2019-02-18T05:04:53.677Z,27.40
2019-02-18T05:05:53.676Z,26.20
2019-02-18T05:06:53.667Z,26.70
2019-02-18T05:07:53.665Z,26.80
2019-02-18T05:09:02.984Z,25.90
2019-02-18T05:09:54.638Z,26.20
2019-02-18T05:10:53.631Z,27.60
2019-02-18T05:11:53.625Z,27.50
2019-02-18T05:12:53.603Z,27.10
2019-02-18T05:13:53.606Z,28.30
2019-02-18T05:14:53.585Z,27.60
2019-02-18T05:15:53.567Z,29.00
2019-02-18T05:16:53.556Z,27.00
2019-02-18T05:17:53.559Z,27.40
2019-02-18T05:18:53.542Z,26.60
2019-02-18T05:19:53.533Z,26.40
2019-02-18T05:20:53.514Z,26.80
2019-02-18T05:21:53.505Z,26.00
2019-02-18T05:22:53.497Z,27.00
2019-02-18T05:23:53.497Z,27.20
2019-02-18T05:24:53.480Z,26.30
2019-02-18T05:25:53.473Z,26.10
2019-02-18T05:26:53.453Z,27.00
2019-02-18T05:27:53.446Z,26.80
2019-02-18T05:28:53.438Z,27.00
2019-02-18T05:29:53.430Z,26.50
2019-02-18T05:30:53.428Z,27.70
2019-02-18T05:31:53.400Z,25.50
2019-02-18T05:32:53.398Z,27.00
2019-02-18T05:33:53.385Z,27.60
2019-02-18T05:34:53.384Z,27.80
2019-02-18T05:35:55.864Z,27.70
2019-02-18T05:36:53.358Z,27.50
2019-02-18T05:37:53.336Z,26.90
2019-02-18T05:38:53.327Z,27.20
2019-02-18T05:39:55.362Z,28.10
2019-02-18T05:40:53.317Z,26.50
2019-02-18T05:41:53.297Z,27.90
2019-02-18T05:42:53.292Z,29.40
2019-02-18T05:43:53.279Z,28.40
2019-02-18T05:44:53.269Z,28.60
2019-02-18T05:45:53.268Z,26.20
2019-02-18T05:46:53.258Z,27.20
2019-02-18T05:47:53.241Z,26.70
2019-02-18T05:48:53.233Z,27.20
2019-02-18T05:49:53.221Z,26.40
2019-02-18T05:50:53.201Z,27.20
2019-02-18T05:51:53.193Z,27.20
2019-02-18T05:52:53.183Z,25.70
2019-02-18T05:53:53.180Z,26.20
2019-02-18T05:54:53.160Z,26.10
2019-02-18T05:55:53.148Z,28.50
2019-02-18T05:56:53.143Z,27.50
2019-02-18T05:57:53.154Z,27.40
2019-02-18T05:58:53.121Z,27.10
2019-02-18T05:59:53.129Z,27.10
2019-02-18T06:00:53.122Z,27.00
2019-02-18T06:01:53.091Z,27.50
2019-02-18T06:02:53.078Z,28.10
2019-02-18T06:03:53.083Z,26.80
2019-02-18T06:04:53.062Z,27.30
2019-02-18T06:05:53.055Z,26.90
2019-02-18T06:06:53.042Z,28.40
2019-02-18T06:07:53.031Z,26.90
2019-02-18T06:08:53.022Z,27.90
2019-02-18T06:09:53.027Z,27.70
2019-02-18T06:10:53.002Z,27.30
2019-02-18T06:11:52.997Z,27.80
2019-02-18T06:12:52.977Z,28.30
2019-02-18T06:13:52.958Z,27.90
2019-02-18T06:14:52.954Z,27.30
2019-02-18T06:15:52.943Z,27.40
2019-02-18T06:16:52.939Z,28.40
2019-02-18T06:17:52.933Z,28.10
2019-02-18T06:18:52.914Z,27.40
2019-02-18T06:19:52.903Z,27.10
2019-02-18T06:20:52.900Z,27.40
2019-02-18T06:21:52.901Z,28.10
2019-02-18T06:22:52.883Z,28.10
2019-02-18T06:23:52.857Z,28.60
2019-02-18T06:24:52.857Z,27.30
2019-02-18T06:25:52.834Z,27.50
2019-02-18T06:26:52.838Z,27.80
2019-02-18T06:27:52.815Z,28.20
2019-02-18T06:28:52.809Z,29.60
2019-02-18T06:29:52.799Z,28.40
2019-02-18T06:30:54.913Z,29.80
2019-02-18T06:31:52.785Z,29.10
2019-02-18T06:32:52.788Z,27.10
2019-02-18T06:33:52.761Z,27.50
2019-02-18T06:34:52.746Z,28.00
2019-02-18T06:35:52.741Z,28.00
2019-02-18T06:36:52.727Z,26.90
2019-02-18T06:37:52.713Z,27.90
2019-02-18T06:38:52.708Z,27.20
2019-02-18T06:39:52.702Z,28.80
2019-02-18T06:40:52.699Z,29.70
2019-02-18T06:41:52.675Z,31.50
2019-02-18T06:42:52.659Z,30.70
2019-02-18T06:43:52.657Z,30.10
2019-02-18T06:44:52.641Z,31.00
2019-02-18T06:45:52.649Z,31.10
2019-02-18T06:46:52.613Z,31.70
2019-02-18T06:47:52.610Z,31.10
2019-02-18T06:48:52.597Z,30.50
2019-02-18T06:49:52.592Z,30.10
2019-02-18T06:50:52.580Z,28.70
2019-02-18T06:51:52.570Z,29.20
2019-02-18T06:52:52.558Z,28.80
2019-02-18T06:53:52.558Z,28.70
2019-02-18T06:54:52.535Z,29.40
2019-02-18T06:55:52.561Z,29.40
2019-02-18T06:56:52.523Z,29.00
2019-02-18T06:57:52.513Z,29.80
2019-02-18T06:58:52.493Z,29.80
2019-02-18T06:59:52.489Z,28.70
2019-02-18T07:00:52.483Z,27.80
2019-02-18T07:01:52.459Z,28.10
2019-02-18T07:02:52.459Z,28.70
2019-02-18T07:03:52.458Z,27.90
2019-02-18T07:04:52.431Z,28.00
2019-02-18T07:05:52.433Z,27.60
2019-02-18T07:06:52.413Z,28.00
2019-02-18T07:07:52.398Z,27.20
2019-02-18T07:08:52.410Z,27.10
2019-02-18T07:09:52.391Z,27.30
2019-02-18T07:10:52.373Z,27.10
2019-02-18T07:11:52.360Z,26.60
2019-02-18T07:12:52.349Z,27.40
2019-02-18T07:13:52.337Z,27.60
2019-02-18T07:14:52.343Z,27.00
2019-02-18T07:15:52.329Z,27.10
2019-02-18T07:16:52.307Z,26.30
2019-02-18T07:17:52.297Z,26.90
2019-02-18T07:18:52.285Z,26.90
2019-02-18T07:19:52.277Z,27.20
2019-02-18T07:20:52.269Z,28.00
2019-02-18T07:21:52.255Z,26.80
2019-02-18T07:22:52.243Z,27.20
2019-02-18T07:23:52.234Z,26.10
2019-02-18T07:24:52.225Z,25.90
2019-02-18T07:25:52.216Z,26.80
2019-02-18T07:26:52.209Z,25.60
2019-02-18T07:27:52.187Z,24.10
2019-02-18T07:28:52.181Z,24.80
2019-02-18T07:29:52.172Z,23.90
2019-02-18T07:30:52.155Z,23.80
2019-02-18T07:31:52.165Z,24.10
2019-02-18T07:32:52.143Z,23.90
2019-02-18T07:33:52.121Z,24.30
2019-02-18T07:34:52.113Z,24.00
2019-02-18T07:35:52.105Z,24.10
2019-02-18T07:36:52.094Z,23.00
2019-02-18T07:37:52.083Z,23.90
2019-02-18T07:38:52.066Z,23.10
2019-02-18T07:40:01.231Z,23.70
2019-02-18T07:40:53.043Z,23.50
2019-02-18T07:41:52.031Z,22.10
2019-02-18T07:42:52.035Z,22.40
2019-02-18T07:43:52.025Z,22.30
2019-02-18T07:44:52.009Z,22.70
2019-02-18T07:45:51.997Z,21.40
2019-02-18T07:46:51.985Z,22.70
2019-02-18T07:47:51.983Z,22.90
2019-02-18T07:48:51.966Z,22.50
2019-02-18T07:49:51.951Z,22.30
2019-02-18T07:50:51.944Z,22.40
2019-02-18T07:51:51.935Z,22.80
2019-02-18T07:52:51.947Z,22.50
2019-02-18T07:53:51.911Z,22.10
2019-02-18T07:54:51.929Z,22.30
2019-02-18T07:55:51.889Z,22.20
2019-02-18T07:56:51.875Z,22.50
2019-02-18T07:57:51.867Z,21.90
2019-02-18T07:58:51.858Z,21.90
2019-02-18T07:59:51.851Z,21.80
2019-02-18T08:00:51.840Z,21.90
2019-02-18T08:01:51.821Z,21.20
2019-02-18T08:02:51.812Z,21.70
2019-02-18T08:03:51.805Z,21.20
2019-02-18T08:04:51.801Z,22.10
2019-02-18T08:05:51.784Z,22.20
2019-02-18T08:06:51.763Z,21.30
2019-02-18T08:07:51.776Z,21.90
2019-02-18T08:08:51.752Z,21.30
2019-02-18T08:09:51.741Z,22.40
2019-02-18T08:10:51.722Z,21.00
2019-02-18T08:11:51.720Z,21.30
2019-02-18T08:12:51.701Z,22.10
2019-02-18T08:13:51.700Z,21.00
2019-02-18T08:14:51.681Z,21.60
2019-02-18T08:15:51.677Z,21.10
2019-02-18T08:16:51.667Z,21.20
2019-02-18T08:17:51.677Z,21.20
2019-02-18T08:18:51.640Z,20.90
2019-02-18T08:19:51.630Z,21.20
2019-02-18T08:20:51.616Z,20.30
2019-02-18T08:21:51.609Z,21.40
2019-02-18T08:22:51.607Z,20.60
2019-02-18T08:23:59.702Z,21.10
2019-02-18T08:24:52.575Z,20.70
2019-02-18T08:25:51.573Z,21.20
2019-02-18T08:26:51.564Z,20.20
2019-02-18T08:27:51.550Z,20.60
2019-02-18T08:28:51.540Z,20.40
2019-02-18T08:29:51.526Z,20.50
2019-02-18T08:30:51.526Z,20.00
2019-02-18T08:31:51.506Z,19.80
2019-02-18T08:32:51.505Z,20.30
2019-02-18T08:33:51.481Z,20.40
2019-02-18T08:34:51.474Z,20.90
2019-02-18T08:35:51.464Z,20.50
2019-02-18T08:36:51.452Z,19.80
2019-02-18T08:37:51.442Z,19.40
2019-02-18T08:38:51.432Z,20.30
2019-02-18T08:39:51.460Z,20.40
2019-02-18T08:40:51.443Z,19.70
2019-02-18T08:41:51.398Z,20.20
2019-02-18T08:42:51.388Z,20.50
2019-02-18T08:43:51.387Z,20.60
2019-02-18T08:44:51.369Z,20.00
2019-02-18T08:45:51.366Z,20.70
2019-02-18T08:46:51.362Z,20.00
2019-02-18T08:47:51.338Z,19.60
2019-02-18T08:48:51.342Z,20.30
2019-02-18T08:49:51.317Z,20.60
2019-02-18T08:50:51.315Z,19.60
2019-02-18T08:51:51.314Z,19.70
2019-02-18T08:52:51.290Z,19.80
2019-02-18T08:53:51.283Z,20.20
2019-02-18T08:54:56.437Z,20.40
2019-02-18T08:55:52.263Z,19.60
2019-02-18T08:56:51.247Z,19.30
2019-02-18T08:57:51.368Z,19.90
2019-02-18T08:58:51.239Z,20.40
2019-02-18T08:59:51.219Z,19.30
2019-02-18T09:00:51.211Z,19.80
2019-02-18T09:01:51.204Z,20.40
2019-02-18T09:02:51.187Z,19.10
2019-02-18T09:03:51.201Z,20.10
2019-02-18T09:04:51.171Z,19.50
2019-02-18T09:05:51.157Z,19.80
2019-02-18T09:06:51.157Z,19.30
2019-02-18T09:07:51.142Z,19.20
2019-02-18T09:08:51.137Z,19.40
2019-02-18T09:09:51.376Z,19.10
2019-02-18T09:10:51.131Z,18.80
2019-02-18T09:11:51.106Z,18.60
2019-02-18T09:12:51.089Z,18.70
2019-02-18T09:13:51.081Z,17.90
2019-02-18T09:14:51.079Z,18.80
2019-02-18T09:15:59.642Z,19.20
2019-02-18T09:16:52.055Z,17.80
2019-02-18T09:17:51.049Z,18.90
2019-02-18T09:18:51.078Z,17.80
2019-02-18T09:19:51.023Z,17.90
2019-02-18T09:20:51.748Z,17.50
2019-02-18T09:21:51.015Z,17.80
2019-02-18T09:23:21.700Z,16.20
2019-02-18T09:24:21.646Z,16.80
2019-02-18T09:25:52.331Z,16.00
2019-02-18T09:26:52.345Z,16.80
2019-02-18T09:27:52.293Z,16.50
2019-02-18T09:28:52.303Z,21.80
2019-02-18T09:29:52.340Z,26.50
2019-02-18T09:30:52.255Z,20.90
2019-02-18T09:31:52.254Z,26.60
2019-02-18T09:32:52.237Z,23.40
2019-02-18T09:33:52.231Z,20.40
2019-02-18T09:34:53.190Z,17.40
2019-02-18T09:35:52.213Z,17.10
2019-02-18T09:36:52.208Z,15.80
2019-02-18T09:37:52.195Z,16.90
2019-02-18T09:38:52.183Z,16.80
2019-02-18T09:39:52.172Z,16.60
2019-02-18T09:40:52.171Z,17.90
2019-02-18T09:41:52.161Z,16.70
2019-02-18T09:42:52.146Z,16.80
2019-02-18T09:43:52.133Z,16.90
2019-02-18T09:44:52.121Z,17.20
2019-02-18T09:45:52.136Z,16.30
2019-02-18T09:46:52.128Z,16.90
2019-02-18T09:47:54.222Z,16.80
2019-02-18T09:48:52.093Z,16.70
2019-02-18T09:49:52.076Z,15.80
2019-02-18T09:50:52.071Z,15.50
2019-02-18T09:51:52.062Z,15.90
2019-02-18T09:52:52.747Z,16.80
2019-02-18T09:53:52.038Z,16.70
2019-02-18T09:55:22.789Z,15.80
2019-02-18T09:56:22.736Z,16.40
2019-02-18T09:57:53.410Z,16.80
2019-02-18T09:58:53.374Z,17.20
2019-02-18T10:00:24.077Z,15.30
2019-02-18T10:01:24.061Z,16.20
2019-02-18T10:02:54.755Z,14.30
2019-02-18T10:03:54.701Z,16.10
2019-02-18T10:05:25.361Z,15.10
2019-02-18T10:06:25.357Z,16.70
2019-02-18T10:07:56.033Z,16.00
2019-02-18T10:08:56.011Z,16.40
2019-02-18T10:10:26.680Z,15.50
2019-02-18T10:11:26.664Z,16.10
2019-02-18T10:12:59.564Z,15.00
2019-02-18T10:13:57.327Z,16.10
2019-02-18T10:14:57.360Z,16.80
2019-02-18T10:15:57.302Z,17.00
2019-02-18T10:16:57.294Z,17.30
2019-02-18T10:17:57.285Z,16.80
2019-02-18T10:18:57.269Z,16.60
2019-02-18T10:19:57.262Z,16.90
2019-02-18T10:20:57.250Z,16.90
2019-02-18T10:21:57.252Z,17.10
2019-02-18T10:22:57.221Z,16.00
2019-02-18T10:23:57.223Z,16.30
2019-02-18T10:24:57.210Z,18.00
2019-02-18T10:25:57.203Z,25.00
2019-02-18T10:26:57.188Z,22.00
2019-02-18T10:27:57.173Z,19.80
2019-02-18T10:28:57.178Z,17.60
2019-02-18T10:29:57.165Z,17.60
2019-02-18T10:30:57.147Z,17.30
2019-02-18T10:31:57.155Z,16.20
2019-02-18T10:32:57.121Z,17.20
2019-02-18T10:33:57.110Z,17.00
2019-02-18T10:34:57.100Z,16.80
2019-02-18T10:35:57.092Z,16.10
2019-02-18T10:36:57.085Z,17.00
2019-02-18T10:37:57.070Z,16.10
2019-02-18T10:38:57.063Z,16.10
2019-02-18T10:39:57.054Z,16.30
2019-02-18T10:41:06.644Z,16.70
2019-02-18T10:41:58.034Z,17.10
2019-02-18T10:42:57.017Z,16.80
2019-02-18T10:43:57.012Z,16.80
2019-02-18T10:44:57.027Z,15.80
2019-02-18T10:45:56.992Z,15.80
2019-02-18T10:46:56.982Z,16.30
2019-02-18T10:47:56.964Z,16.20
2019-02-18T10:48:56.959Z,16.70
2019-02-18T10:49:56.944Z,16.90
2019-02-18T10:50:56.935Z,16.50
2019-02-18T10:51:56.923Z,16.20
2019-02-18T10:52:56.917Z,17.00
2019-02-18T10:53:56.906Z,15.70
2019-02-18T10:54:56.898Z,15.90
2019-02-18T10:55:56.882Z,16.00
2019-02-18T10:56:56.864Z,15.80
2019-02-18T10:57:56.859Z,15.30
2019-02-18T10:58:56.846Z,16.20
2019-02-18T10:59:59.146Z,16.00
2019-02-18T11:00:56.823Z,16.10
2019-02-18T11:01:56.816Z,15.60
2019-02-18T11:02:56.811Z,16.50
2019-02-18T11:03:56.798Z,15.50
2019-02-18T11:04:56.785Z,16.00
2019-02-18T11:05:56.776Z,15.90
2019-02-18T11:06:56.760Z,15.80
2019-02-18T11:07:56.757Z,16.20
2019-02-18T11:08:56.739Z,16.00
2019-02-18T11:09:56.727Z,16.20
2019-02-18T11:10:56.723Z,16.00
2019-02-18T11:11:56.708Z,16.10
2019-02-18T11:12:56.695Z,16.20
2019-02-18T11:13:56.679Z,16.00
2019-02-18T11:14:56.671Z,15.30
2019-02-18T11:15:56.658Z,15.80
2019-02-18T11:16:56.649Z,15.70
2019-02-18T11:17:56.690Z,15.70
2019-02-18T11:18:56.639Z,15.40
2019-02-18T11:19:56.616Z,15.20
2019-02-18T11:20:56.618Z,14.70
2019-02-18T11:21:56.603Z,15.10
2019-02-18T11:22:56.585Z,14.90
2019-02-18T11:23:56.579Z,14.80
2019-02-18T11:24:56.562Z,14.60
2019-02-18T11:25:56.555Z,14.00
2019-02-18T11:26:56.544Z,13.80
2019-02-18T11:27:56.531Z,13.70
2019-02-18T11:28:56.515Z,13.50
2019-02-18T11:29:56.513Z,13.30
2019-02-18T11:30:56.518Z,13.60
2019-02-18T11:31:56.487Z,13.10
2019-02-18T11:32:56.493Z,12.90
2019-02-18T11:33:56.472Z,13.50
2019-02-18T11:34:56.455Z,12.80
2019-02-18T11:35:56.470Z,13.20
2019-02-18T11:36:56.439Z,13.10
2019-02-18T11:37:56.426Z,13.20
2019-02-18T11:38:56.416Z,13.40
2019-02-18T11:39:56.410Z,12.80
2019-02-18T11:40:56.396Z,13.10
2019-02-18T11:41:56.376Z,13.40
2019-02-18T11:42:56.370Z,12.90
2019-02-18T11:43:56.374Z,13.40
2019-02-18T11:44:56.346Z,13.50
2019-02-18T11:45:56.366Z,13.50
2019-02-18T11:46:56.324Z,13.80
2019-02-18T11:47:56.313Z,13.30
2019-02-18T11:48:56.322Z,12.70
2019-02-18T11:49:56.295Z,13.00
2019-02-18T11:50:56.288Z,13.20
2019-02-18T11:51:56.266Z,12.80
2019-02-18T11:52:56.266Z,13.10
2019-02-18T11:53:56.276Z,12.90
2019-02-18T11:54:56.238Z,13.30
2019-02-18T11:55:56.228Z,12.70
2019-02-18T11:56:56.209Z,12.90
2019-02-18T11:57:56.199Z,13.30
2019-02-18T11:58:56.194Z,12.70
2019-02-18T11:59:56.181Z,13.30
2019-02-18T12:00:56.166Z,13.10
2019-02-18T12:01:56.158Z,13.10
2019-02-18T12:03:02.928Z,13.30
2019-02-18T12:03:57.148Z,13.60
2019-02-18T12:04:56.127Z,13.80
2019-02-18T12:05:56.113Z,13.30
2019-02-18T12:06:56.107Z,13.30
2019-02-18T12:07:56.097Z,13.20
2019-02-18T12:08:56.085Z,13.20
2019-02-18T12:09:56.069Z,13.40
2019-02-18T12:10:56.081Z,13.40
2019-02-18T12:11:56.050Z,13.70
2019-02-18T12:12:56.115Z,13.90
2019-02-18T12:13:56.028Z,14.20
2019-02-18T12:14:56.020Z,14.30
2019-02-18T12:15:56.000Z,13.50
2019-02-18T12:16:56.004Z,13.90
2019-02-18T12:17:55.990Z,14.00
2019-02-18T12:18:55.974Z,14.40
2019-02-18T12:19:55.967Z,14.30
2019-02-18T12:20:55.955Z,14.80
2019-02-18T12:21:55.938Z,14.60
2019-02-18T12:22:55.930Z,14.50
2019-02-18T12:23:55.924Z,14.20
2019-02-18T12:24:55.917Z,14.10
2019-02-18T12:25:55.898Z,13.20
2019-02-18T12:26:55.884Z,13.70
2019-02-18T12:27:55.883Z,13.80
2019-02-18T12:28:55.861Z,13.80
2019-02-18T12:29:55.877Z,13.20
2019-02-18T12:30:55.838Z,13.80
2019-02-18T12:31:55.836Z,13.70
2019-02-18T12:32:55.831Z,14.10
2019-02-18T12:33:55.811Z,13.80
2019-02-18T12:34:55.802Z,14.60
2019-02-18T12:35:55.790Z,13.90
2019-02-18T12:36:55.781Z,14.70
2019-02-18T12:37:55.881Z,13.80
2019-02-18T12:38:55.756Z,14.00
2019-02-18T12:39:55.752Z,14.20
2019-02-18T12:40:55.752Z,14.10
2019-02-18T12:41:55.732Z,14.20
2019-02-18T12:42:55.726Z,13.70
2019-02-18T12:43:55.702Z,14.70
2019-02-18T12:44:55.690Z,14.40
2019-02-18T12:45:55.682Z,13.90
2019-02-18T12:46:55.685Z,13.50
2019-02-18T12:47:55.660Z,14.10
2019-02-18T12:48:55.666Z,14.10
2019-02-18T12:49:55.642Z,13.90
2019-02-18T12:50:55.634Z,14.10
2019-02-18T12:51:55.615Z,13.90
2019-02-18T12:52:55.606Z,14.50
2019-02-18T12:54:04.735Z,14.50
2019-02-18T12:54:56.652Z,13.80
2019-02-18T12:55:55.582Z,14.20
2019-02-18T12:56:55.561Z,13.70
2019-02-18T12:57:55.568Z,14.40